sensor_id;sensor_type;location;lat;lon;timestamp;temperature;humidity
13817;DHT22;6979;52.116;5.286;2024-03-02T00:01:05;13.00;99.90
13817;DHT22;6979;52.116;5.286;2024-03-02T00:03:33;13.00;99.90
13817;DHT22;6979;52.116;5.286;2024-03-02T00:06:04;13.00;99.90
13817;DHT22;6979;52.116;5.286;2024-03-02T00:08:32;13.00;99.90
13817;DHT22;6979;52.116;5.286;2024-03-02T00:11:01;13.00;99.90
13817;DHT22;6979;52.116;5.286;2024-03-02T00:13:29;13.10;99.90
13817;DHT22;6979;52.116;5.286;2024-03-02T00:15:57;13.00;99.90
13817;DHT22;6979;52.116;5.286;2024-03-02T00:18:30;13.00;99.90
13817;DHT22;6979;52.116;5.286;2024-03-02T00:21:00;13.10;99.90
13817;DHT22;6979;52.116;5.286;2024-03-02T00:23:30;13.10;99.90
13817;DHT22;6979;52.116;5.286;2024-03-02T00:25:59;13.10;99.90
13817;DHT22;6979;52.116;5.286;2024-03-02T00:28:27;13.10;99.90
13817;DHT22;6979;52.116;5.286;2024-03-02T00:30:57;13.10;99.90
13817;DHT22;6979;52.116;5.286;2024-03-02T00:33:26;13.10;99.90
13817;DHT22;6979;52.116;5.286;2024-03-02T00:35:55;13.10;99.90
13817;DHT22;6979;52.116;5.286;2024-03-02T00:38:22;13.10;99.90
13817;DHT22;6979;52.116;5.286;2024-03-02T00:40:49;13.00;99.90
13817;DHT22;6979;52.116;5.286;2024-03-02T00:46:16;13.00;99.90
13817;DHT22;6979;52.116;5.286;2024-03-02T00:48:54;13.00;99.90
13817;DHT22;6979;52.116;5.286;2024-03-02T00:51:22;12.90;99.90
13817;DHT22;6979;52.116;5.286;2024-03-02T00:53:49;12.80;99.90
13817;DHT22;6979;52.116;5.286;2024-03-02T00:56:16;12.80;99.90
13817;DHT22;6979;52.116;5.286;2024-03-02T00:58:43;12.70;99.90
13817;DHT22;6979;52.116;5.286;2024-03-02T01:01:10;12.60;99.90
13817;DHT22;6979;52.116;5.286;2024-03-02T01:03:38;12.60;99.90
13817;DHT22;6979;52.116;5.286;2024-03-02T01:06:07;12.50;99.90
13817;DHT22;6979;52.116;5.286;2024-03-02T01:08:34;12.40;99.90
13817;DHT22;6979;52.116;5.286;2024-03-02T01:11:04;12.40;99.90
13817;DHT22;6979;52.116;5.286;2024-03-02T01:13:32;12.30;99.90
13817;DHT22;6979;52.116;5.286;2024-03-02T01:15:59;12.20;99.90
13817;DHT22;6979;52.116;5.286;2024-03-02T01:18:35;12.20;99.90
13817;DHT22;6979;52.116;5.286;2024-03-02T01:21:03;12.10;99.90
13817;DHT22;6979;52.116;5.286;2024-03-02T01:23:30;12.00;99.90
13817;DHT22;6979;52.116;5.286;2024-03-02T01:25:58;12.00;99.90
13817;DHT22;6979;52.116;5.286;2024-03-02T01:28:25;11.90;99.90
13817;DHT22;6979;52.116;5.286;2024-03-02T01:30:52;11.90;99.90
13817;DHT22;6979;52.116;5.286;2024-03-02T01:33:19;11.80;99.90
13817;DHT22;6979;52.116;5.286;2024-03-02T01:35:46;11.80;99.90
13817;DHT22;6979;52.116;5.286;2024-03-02T01:38:15;11.70;99.90
13817;DHT22;6979;52.116;5.286;2024-03-02T01:40:42;11.70;99.90
13817;DHT22;6979;52.116;5.286;2024-03-02T01:43:10;11.70;99.90
13817;DHT22;6979;52.116;5.286;2024-03-02T01:45:37;11.70;99.90
13817;DHT22;6979;52.116;5.286;2024-03-02T01:48:05;11.60;99.90
13817;DHT22;6979;52.116;5.286;2024-03-02T01:50:33;11.60;99.90
13817;DHT22;6979;52.116;5.286;2024-03-02T01:53:00;11.50;99.90
13817;DHT22;6979;52.116;5.286;2024-03-02T01:55:29;11.60;99.90
13817;DHT22;6979;52.116;5.286;2024-03-02T01:57:56;11.50;99.90
13817;DHT22;6979;52.116;5.286;2024-03-02T02:00:23;11.50;99.90
13817;DHT22;6979;52.116;5.286;2024-03-02T02:02:51;11.50;99.90
13817;DHT22;6979;52.116;5.286;2024-03-02T02:05:19;11.50;99.90
13817;DHT22;6979;52.116;5.286;2024-03-02T02:07:46;11.50;99.90
13817;DHT22;6979;52.116;5.286;2024-03-02T02:10:13;11.50;99.90
13817;DHT22;6979;52.116;5.286;2024-03-02T02:12:41;11.50;99.90
13817;DHT22;6979;52.116;5.286;2024-03-02T02:15:27;11.50;99.90
13817;DHT22;6979;52.116;5.286;2024-03-02T02:17:54;11.40;99.90
13817;DHT22;6979;52.116;5.286;2024-03-02T02:20:21;11.40;99.90
13817;DHT22;6979;52.116;5.286;2024-03-02T02:23:00;11.40;99.90
13817;DHT22;6979;52.116;5.286;2024-03-02T02:25:27;11.30;99.90
13817;DHT22;6979;52.116;5.286;2024-03-02T02:27:56;11.30;99.90
13817;DHT22;6979;52.116;5.286;2024-03-02T02:30:25;11.30;99.90
13817;DHT22;6979;52.116;5.286;2024-03-02T02:32:53;11.30;99.90
13817;DHT22;6979;52.116;5.286;2024-03-02T02:35:20;11.20;99.90
13817;DHT22;6979;52.116;5.286;2024-03-02T02:37:48;11.20;99.90
13817;DHT22;6979;52.116;5.286;2024-03-02T02:40:17;11.20;99.90
13817;DHT22;6979;52.116;5.286;2024-03-02T02:42:45;11.20;99.90
13817;DHT22;6979;52.116;5.286;2024-03-02T02:45:15;11.20;99.90
13817;DHT22;6979;52.116;5.286;2024-03-02T02:47:42;11.10;99.90
13817;DHT22;6979;52.116;5.286;2024-03-02T02:50:11;11.10;99.90
13817;DHT22;6979;52.116;5.286;2024-03-02T02:52:39;11.10;99.90
13817;DHT22;6979;52.116;5.286;2024-03-02T02:55:17;11.10;99.90
13817;DHT22;6979;52.116;5.286;2024-03-02T02:57:44;11.00;99.90
13817;DHT22;6979;52.116;5.286;2024-03-02T03:00:13;11.10;99.90
13817;DHT22;6979;52.116;5.286;2024-03-02T03:02:45;11.00;99.90
13817;DHT22;6979;52.116;5.286;2024-03-02T03:05:14;11.00;99.90
13817;DHT22;6979;52.116;5.286;2024-03-02T03:07:41;11.00;99.90
13817;DHT22;6979;52.116;5.286;2024-03-02T03:10:10;11.00;99.90
13817;DHT22;6979;52.116;5.286;2024-03-02T03:12:38;11.00;99.90
13817;DHT22;6979;52.116;5.286;2024-03-02T03:15:07;11.00;99.90
13817;DHT22;6979;52.116;5.286;2024-03-02T03:17:34;11.00;99.90
13817;DHT22;6979;52.116;5.286;2024-03-02T03:20:03;11.00;99.90
13817;DHT22;6979;52.116;5.286;2024-03-02T03:22:31;11.00;99.90
13817;DHT22;6979;52.116;5.286;2024-03-02T03:24:58;10.90;99.90
13817;DHT22;6979;52.116;5.286;2024-03-02T03:27:25;11.00;99.90
13817;DHT22;6979;52.116;5.286;2024-03-02T03:29:54;11.00;99.90
13817;DHT22;6979;52.116;5.286;2024-03-02T03:32:21;11.00;99.90
13817;DHT22;6979;52.116;5.286;2024-03-02T03:34:48;11.00;99.90
13817;DHT22;6979;52.116;5.286;2024-03-02T03:37:15;11.00;99.90
13817;DHT22;6979;52.116;5.286;2024-03-02T03:39:42;10.90;99.90
13817;DHT22;6979;52.116;5.286;2024-03-02T03:42:08;10.90;99.90
13817;DHT22;6979;52.116;5.286;2024-03-02T03:44:35;10.90;99.90
13817;DHT22;6979;52.116;5.286;2024-03-02T03:47:04;10.90;99.90
13817;DHT22;6979;52.116;5.286;2024-03-02T03:49:31;10.90;99.90
13817;DHT22;6979;52.116;5.286;2024-03-02T03:51:58;10.90;99.90
13817;DHT22;6979;52.116;5.286;2024-03-02T03:54:24;10.90;99.90
13817;DHT22;6979;52.116;5.286;2024-03-02T03:56:51;10.90;99.90
13817;DHT22;6979;52.116;5.286;2024-03-02T03:59:18;10.90;99.90
13817;DHT22;6979;52.116;5.286;2024-03-02T04:01:45;10.90;99.90
13817;DHT22;6979;52.116;5.286;2024-03-02T04:04:13;11.00;99.90
13817;DHT22;6979;52.116;5.286;2024-03-02T04:06:40;11.00;99.90
13817;DHT22;6979;52.116;5.286;2024-03-02T04:09:07;11.00;99.90
13817;DHT22;6979;52.116;5.286;2024-03-02T04:11:37;11.00;99.90
13817;DHT22;6979;52.116;5.286;2024-03-02T04:14:04;11.00;99.90
13817;DHT22;6979;52.116;5.286;2024-03-02T04:16:32;11.10;99.90
13817;DHT22;6979;52.116;5.286;2024-03-02T04:18:59;11.10;99.90
13817;DHT22;6979;52.116;5.286;2024-03-02T04:21:27;11.10;99.90
13817;DHT22;6979;52.116;5.286;2024-03-02T04:23:54;11.10;99.90
13817;DHT22;6979;52.116;5.286;2024-03-02T04:26:24;11.10;99.90
13817;DHT22;6979;52.116;5.286;2024-03-02T04:28:51;11.20;99.90
13817;DHT22;6979;52.116;5.286;2024-03-02T04:31:17;11.20;99.90
13817;DHT22;6979;52.116;5.286;2024-03-02T04:33:44;11.20;99.90
13817;DHT22;6979;52.116;5.286;2024-03-02T04:36:11;11.20;99.90
13817;DHT22;6979;52.116;5.286;2024-03-02T04:38:40;11.20;99.90
13817;DHT22;6979;52.116;5.286;2024-03-02T04:41:07;11.20;99.90
13817;DHT22;6979;52.116;5.286;2024-03-02T04:43:34;11.20;99.90
13817;DHT22;6979;52.116;5.286;2024-03-02T04:46:03;11.30;99.90
13817;DHT22;6979;52.116;5.286;2024-03-02T04:48:30;11.20;99.90
13817;DHT22;6979;52.116;5.286;2024-03-02T04:50:57;11.30;99.90
13817;DHT22;6979;52.116;5.286;2024-03-02T04:53:24;11.30;99.90
13817;DHT22;6979;52.116;5.286;2024-03-02T04:55:52;11.30;99.90
13817;DHT22;6979;52.116;5.286;2024-03-02T04:58:45;11.30;99.90
13817;DHT22;6979;52.116;5.286;2024-03-02T05:01:12;11.20;99.90
13817;DHT22;6979;52.116;5.286;2024-03-02T05:03:43;11.20;99.90
13817;DHT22;6979;52.116;5.286;2024-03-02T05:06:11;11.20;99.90
13817;DHT22;6979;52.116;5.286;2024-03-02T05:08:37;11.20;99.90
13817;DHT22;6979;52.116;5.286;2024-03-02T05:11:06;11.10;99.90
13817;DHT22;6979;52.116;5.286;2024-03-02T05:13:50;11.10;99.90
13817;DHT22;6979;52.116;5.286;2024-03-02T05:16:20;11.10;99.90
13817;DHT22;6979;52.116;5.286;2024-03-02T05:18:48;11.10;99.90
13817;DHT22;6979;52.116;5.286;2024-03-02T05:21:14;11.10;99.90
13817;DHT22;6979;52.116;5.286;2024-03-02T05:23:41;11.00;99.90
13817;DHT22;6979;52.116;5.286;2024-03-02T05:26:10;11.00;99.90
13817;DHT22;6979;52.116;5.286;2024-03-02T05:28:38;11.00;99.90
13817;DHT22;6979;52.116;5.286;2024-03-02T05:31:05;11.00;99.90
13817;DHT22;6979;52.116;5.286;2024-03-02T05:33:32;11.00;99.90
13817;DHT22;6979;52.116;5.286;2024-03-02T05:35:59;11.00;99.90
13817;DHT22;6979;52.116;5.286;2024-03-02T05:38:27;11.00;99.90
13817;DHT22;6979;52.116;5.286;2024-03-02T05:40:57;11.00;99.90
13817;DHT22;6979;52.116;5.286;2024-03-02T05:43:25;11.00;99.90
13817;DHT22;6979;52.116;5.286;2024-03-02T05:45:53;10.90;99.90
13817;DHT22;6979;52.116;5.286;2024-03-02T05:48:20;10.90;99.90
13817;DHT22;6979;52.116;5.286;2024-03-02T05:50:47;10.90;99.90
13817;DHT22;6979;52.116;5.286;2024-03-02T05:53:14;10.90;99.90
13817;DHT22;6979;52.116;5.286;2024-03-02T05:55:41;10.90;99.90
13817;DHT22;6979;52.116;5.286;2024-03-02T05:58:08;10.80;99.90
13817;DHT22;6979;52.116;5.286;2024-03-02T06:00:49;10.90;99.90
13817;DHT22;6979;52.116;5.286;2024-03-02T06:03:16;10.90;99.90
13817;DHT22;6979;52.116;5.286;2024-03-02T06:05:43;10.90;99.90
13817;DHT22;6979;52.116;5.286;2024-03-02T06:08:10;10.90;99.90
13817;DHT22;6979;52.116;5.286;2024-03-02T06:10:36;10.90;99.90
13817;DHT22;6979;52.116;5.286;2024-03-02T06:13:04;10.90;99.90
13817;DHT22;6979;52.116;5.286;2024-03-02T06:15:31;10.90;99.90
13817;DHT22;6979;52.116;5.286;2024-03-02T06:18:00;10.90;99.90
13817;DHT22;6979;52.116;5.286;2024-03-02T06:20:29;10.90;99.90
13817;DHT22;6979;52.116;5.286;2024-03-02T06:22:56;11.00;99.90
13817;DHT22;6979;52.116;5.286;2024-03-02T06:25:23;11.00;99.90
13817;DHT22;6979;52.116;5.286;2024-03-02T06:27:50;11.00;99.90
13817;DHT22;6979;52.116;5.286;2024-03-02T06:30:17;11.00;99.90
13817;DHT22;6979;52.116;5.286;2024-03-02T06:32:46;11.00;99.90
13817;DHT22;6979;52.116;5.286;2024-03-02T06:35:15;11.00;99.90
13817;DHT22;6979;52.116;5.286;2024-03-02T06:37:41;11.00;99.90
13817;DHT22;6979;52.116;5.286;2024-03-02T06:40:09;11.00;99.90
13817;DHT22;6979;52.116;5.286;2024-03-02T06:42:36;11.00;99.90
13817;DHT22;6979;52.116;5.286;2024-03-02T06:45:03;11.00;99.90
13817;DHT22;6979;52.116;5.286;2024-03-02T06:47:30;11.10;99.90
13817;DHT22;6979;52.116;5.286;2024-03-02T06:49:57;11.00;99.90
13817;DHT22;6979;52.116;5.286;2024-03-02T06:52:25;11.10;99.90
13817;DHT22;6979;52.116;5.286;2024-03-02T06:54:52;11.10;99.90
13817;DHT22;6979;52.116;5.286;2024-03-02T06:57:19;11.10;99.90
13817;DHT22;6979;52.116;5.286;2024-03-02T06:59:46;11.10;99.90
13817;DHT22;6979;52.116;5.286;2024-03-02T07:02:15;11.10;99.90
13817;DHT22;6979;52.116;5.286;2024-03-02T07:04:42;11.10;99.90
13817;DHT22;6979;52.116;5.286;2024-03-02T07:07:10;11.10;99.90
13817;DHT22;6979;52.116;5.286;2024-03-02T07:09:41;11.10;99.90
13817;DHT22;6979;52.116;5.286;2024-03-02T07:12:08;11.10;99.90
13817;DHT22;6979;52.116;5.286;2024-03-02T07:14:35;11.10;99.90
13817;DHT22;6979;52.116;5.286;2024-03-02T07:17:36;11.20;99.90
13817;DHT22;6979;52.116;5.286;2024-03-02T07:20:04;11.20;99.90
13817;DHT22;6979;52.116;5.286;2024-03-02T07:22:32;11.20;99.90
13817;DHT22;6979;52.116;5.286;2024-03-02T07:25:00;11.20;99.90
13817;DHT22;6979;52.116;5.286;2024-03-02T07:27:31;11.30;99.90
13817;DHT22;6979;52.116;5.286;2024-03-02T07:29:59;11.30;99.90
13817;DHT22;6979;52.116;5.286;2024-03-02T07:32:26;11.30;99.90
13817;DHT22;6979;52.116;5.286;2024-03-02T07:34:53;11.30;99.90
13817;DHT22;6979;52.116;5.286;2024-03-02T07:37:21;11.30;99.90
13817;DHT22;6979;52.116;5.286;2024-03-02T07:39:48;11.30;99.90
13817;DHT22;6979;52.116;5.286;2024-03-02T07:42:16;11.40;99.90
13817;DHT22;6979;52.116;5.286;2024-03-02T07:44:46;11.40;99.90
13817;DHT22;6979;52.116;5.286;2024-03-02T07:47:13;11.40;99.90
13817;DHT22;6979;52.116;5.286;2024-03-02T07:49:40;11.40;99.90
13817;DHT22;6979;52.116;5.286;2024-03-02T07:52:07;11.40;99.90
13817;DHT22;6979;52.116;5.286;2024-03-02T07:54:34;11.40;99.90
13817;DHT22;6979;52.116;5.286;2024-03-02T07:57:02;11.40;99.90
13817;DHT22;6979;52.116;5.286;2024-03-02T07:59:30;11.40;99.90
13817;DHT22;6979;52.116;5.286;2024-03-02T08:01:57;11.50;99.90
13817;DHT22;6979;52.116;5.286;2024-03-02T08:04:24;11.40;99.90
13817;DHT22;6979;52.116;5.286;2024-03-02T08:06:53;11.40;99.90
13817;DHT22;6979;52.116;5.286;2024-03-02T08:09:20;11.40;99.90
13817;DHT22;6979;52.116;5.286;2024-03-02T08:11:47;11.40;99.90
13817;DHT22;6979;52.116;5.286;2024-03-02T08:14:14;11.40;99.90
13817;DHT22;6979;52.116;5.286;2024-03-02T08:16:42;11.40;99.90
13817;DHT22;6979;52.116;5.286;2024-03-02T08:19:09;11.40;99.90
13817;DHT22;6979;52.116;5.286;2024-03-02T08:21:39;11.30;99.90
13817;DHT22;6979;52.116;5.286;2024-03-02T08:24:06;11.30;99.90
13817;DHT22;6979;52.116;5.286;2024-03-02T08:26:33;11.30;99.90
13817;DHT22;6979;52.116;5.286;2024-03-02T08:29:00;11.30;99.90
13817;DHT22;6979;52.116;5.286;2024-03-02T08:31:29;11.30;99.90
13817;DHT22;6979;52.116;5.286;2024-03-02T08:33:59;11.30;99.90
13817;DHT22;6979;52.116;5.286;2024-03-02T08:36:26;11.40;99.90
13817;DHT22;6979;52.116;5.286;2024-03-02T08:38:53;11.40;99.90
13817;DHT22;6979;52.116;5.286;2024-03-02T08:41:20;11.40;99.90
13817;DHT22;6979;52.116;5.286;2024-03-02T08:43:47;11.40;99.90
13817;DHT22;6979;52.116;5.286;2024-03-02T08:46:15;11.40;99.90
13817;DHT22;6979;52.116;5.286;2024-03-02T08:48:42;11.50;99.90
13817;DHT22;6979;52.116;5.286;2024-03-02T08:51:10;11.60;99.90
13817;DHT22;6979;52.116;5.286;2024-03-02T08:53:39;11.60;99.90
13817;DHT22;6979;52.116;5.286;2024-03-02T08:56:06;11.70;99.90
13817;DHT22;6979;52.116;5.286;2024-03-02T08:58:34;11.70;99.90
13817;DHT22;6979;52.116;5.286;2024-03-02T09:01:01;11.80;99.90
13817;DHT22;6979;52.116;5.286;2024-03-02T09:03:29;11.80;99.90
13817;DHT22;6979;52.116;5.286;2024-03-02T09:05:58;11.80;99.90
13817;DHT22;6979;52.116;5.286;2024-03-02T09:08:26;11.90;99.90
13817;DHT22;6979;52.116;5.286;2024-03-02T09:10:54;12.00;99.90
13817;DHT22;6979;52.116;5.286;2024-03-02T09:13:26;12.10;99.90
13817;DHT22;6979;52.116;5.286;2024-03-02T09:15:53;12.10;99.90
13817;DHT22;6979;52.116;5.286;2024-03-02T09:18:20;12.20;99.90
13817;DHT22;6979;52.116;5.286;2024-03-02T09:20:47;12.20;99.90
13817;DHT22;6979;52.116;5.286;2024-03-02T09:23:14;12.30;99.90
13817;DHT22;6979;52.116;5.286;2024-03-02T09:25:43;12.30;99.90
13817;DHT22;6979;52.116;5.286;2024-03-02T09:28:10;12.40;99.90
13817;DHT22;6979;52.116;5.286;2024-03-02T09:30:37;12.50;99.90
13817;DHT22;6979;52.116;5.286;2024-03-02T09:33:04;12.70;99.90
13817;DHT22;6979;52.116;5.286;2024-03-02T09:35:31;13.00;99.90
13817;DHT22;6979;52.116;5.286;2024-03-02T09:37:58;13.40;99.90
13817;DHT22;6979;52.116;5.286;2024-03-02T09:40:25;13.80;99.90
13817;DHT22;6979;52.116;5.286;2024-03-02T09:42:54;14.30;99.90
13817;DHT22;6979;52.116;5.286;2024-03-02T09:45:24;14.90;99.90
13817;DHT22;6979;52.116;5.286;2024-03-02T09:47:55;15.40;99.90
13817;DHT22;6979;52.116;5.286;2024-03-02T09:50:21;15.90;99.90
13817;DHT22;6979;52.116;5.286;2024-03-02T09:52:49;16.30;99.90
13817;DHT22;6979;52.116;5.286;2024-03-02T09:55:19;16.60;99.90
13817;DHT22;6979;52.116;5.286;2024-03-02T09:57:47;17.10;99.90
13817;DHT22;6979;52.116;5.286;2024-03-02T10:00:17;17.50;99.90
13817;DHT22;6979;52.116;5.286;2024-03-02T10:02:44;17.90;99.90
13817;DHT22;6979;52.116;5.286;2024-03-02T10:05:28;18.30;99.90
13817;DHT22;6979;52.116;5.286;2024-03-02T10:08:00;18.60;99.90
13817;DHT22;6979;52.116;5.286;2024-03-02T10:10:35;18.90;99.90
13817;DHT22;6979;52.116;5.286;2024-03-02T10:13:09;19.20;99.90
13817;DHT22;6979;52.116;5.286;2024-03-02T10:15:39;19.50;99.90
13817;DHT22;6979;52.116;5.286;2024-03-02T10:18:09;19.90;99.90
13817;DHT22;6979;52.116;5.286;2024-03-02T10:20:39;20.10;99.90
13817;DHT22;6979;52.116;5.286;2024-03-02T10:23:15;20.30;99.90
13817;DHT22;6979;52.116;5.286;2024-03-02T10:25:42;20.60;99.90
13817;DHT22;6979;52.116;5.286;2024-03-02T10:28:10;20.70;99.90
13817;DHT22;6979;52.116;5.286;2024-03-02T10:30:40;20.80;99.90
13817;DHT22;6979;52.116;5.286;2024-03-02T10:33:07;20.80;99.90
13817;DHT22;6979;52.116;5.286;2024-03-02T10:35:38;20.70;99.90
13817;DHT22;6979;52.116;5.286;2024-03-02T10:38:06;20.70;98.00
13817;DHT22;6979;52.116;5.286;2024-03-02T10:40:34;20.60;98.70
13817;DHT22;6979;52.116;5.286;2024-03-02T10:43:01;20.60;99.90
13817;DHT22;6979;52.116;5.286;2024-03-02T10:45:31;20.60;99.90
13817;DHT22;6979;52.116;5.286;2024-03-02T10:48:03;20.70;99.90
13817;DHT22;6979;52.116;5.286;2024-03-02T10:50:31;20.80;99.90
13817;DHT22;6979;52.116;5.286;2024-03-02T10:52:58;20.90;99.90
13817;DHT22;6979;52.116;5.286;2024-03-02T10:55:25;21.00;99.90
13817;DHT22;6979;52.116;5.286;2024-03-02T10:57:52;21.30;99.90
13817;DHT22;6979;52.116;5.286;2024-03-02T11:00:20;21.50;97.70
13817;DHT22;6979;52.116;5.286;2024-03-02T11:02:56;21.60;95.20
13817;DHT22;6979;52.116;5.286;2024-03-02T11:05:31;21.60;94.90
13817;DHT22;6979;52.116;5.286;2024-03-02T11:08:02;21.60;95.10
13817;DHT22;6979;52.116;5.286;2024-03-02T11:10:35;21.50;96.90
13817;DHT22;6979;52.116;5.286;2024-03-02T11:13:05;21.40;96.40
13817;DHT22;6979;52.116;5.286;2024-03-02T11:15:36;21.50;94.20
13817;DHT22;6979;52.116;5.286;2024-03-02T11:18:04;21.50;93.70
13817;DHT22;6979;52.116;5.286;2024-03-02T11:20:36;21.30;93.90
13817;DHT22;6979;52.116;5.286;2024-03-02T11:23:05;21.20;93.70
13817;DHT22;6979;52.116;5.286;2024-03-02T11:25:33;21.00;93.20
13817;DHT22;6979;52.116;5.286;2024-03-02T11:28:04;20.80;94.10
13817;DHT22;6979;52.116;5.286;2024-03-02T11:30:50;20.70;95.00
13817;DHT22;6979;52.116;5.286;2024-03-02T11:33:26;20.60;94.30
13817;DHT22;6979;52.116;5.286;2024-03-02T11:35:58;20.60;93.20
13817;DHT22;6979;52.116;5.286;2024-03-02T11:38:31;20.60;94.10
13817;DHT22;6979;52.116;5.286;2024-03-02T11:41:00;20.50;93.30
13817;DHT22;6979;52.116;5.286;2024-03-02T11:43:28;20.50;93.80
13817;DHT22;6979;52.116;5.286;2024-03-02T11:45:59;20.40;94.00
13817;DHT22;6979;52.116;5.286;2024-03-02T11:48:26;20.30;93.90
13817;DHT22;6979;52.116;5.286;2024-03-02T11:50:53;20.20;93.70
13817;DHT22;6979;52.116;5.286;2024-03-02T11:53:26;20.10;94.40
13817;DHT22;6979;52.116;5.286;2024-03-02T11:55:58;20.00;94.50
13817;DHT22;6979;52.116;5.286;2024-03-02T11:58:25;19.90;95.40
13817;DHT22;6979;52.116;5.286;2024-03-02T12:00:54;19.90;94.30
13817;DHT22;6979;52.116;5.286;2024-03-02T12:03:23;19.90;93.40
13817;DHT22;6979;52.116;5.286;2024-03-02T12:05:51;19.90;93.30
13817;DHT22;6979;52.116;5.286;2024-03-02T12:08:19;19.70;93.50
13817;DHT22;6979;52.116;5.286;2024-03-02T12:10:58;19.60;93.00
13817;DHT22;6979;52.116;5.286;2024-03-02T12:13:25;19.50;92.70
13817;DHT22;6979;52.116;5.286;2024-03-02T12:15:54;19.40;93.00
13817;DHT22;6979;52.116;5.286;2024-03-02T12:18:21;19.20;92.50
13817;DHT22;6979;52.116;5.286;2024-03-02T12:20:49;19.10;93.60
13817;DHT22;6979;52.116;5.286;2024-03-02T12:23:18;19.00;93.80
13817;DHT22;6979;52.116;5.286;2024-03-02T12:25:47;18.90;93.20
13817;DHT22;6979;52.116;5.286;2024-03-02T12:28:16;18.90;92.80
13817;DHT22;6979;52.116;5.286;2024-03-02T12:30:43;18.80;94.80
13817;DHT22;6979;52.116;5.286;2024-03-02T12:33:11;18.80;95.00
13817;DHT22;6979;52.116;5.286;2024-03-02T12:35:38;18.80;94.30
13817;DHT22;6979;52.116;5.286;2024-03-02T12:38:06;18.90;94.30
13817;DHT22;6979;52.116;5.286;2024-03-02T12:40:34;18.90;92.40
13817;DHT22;6979;52.116;5.286;2024-03-02T12:43:02;18.90;92.70
13817;DHT22;6979;52.116;5.286;2024-03-02T12:45:31;18.90;93.80
13817;DHT22;6979;52.116;5.286;2024-03-02T12:48:00;18.90;94.50
13817;DHT22;6979;52.116;5.286;2024-03-02T12:50:27;19.00;94.70
13817;DHT22;6979;52.116;5.286;2024-03-02T12:52:56;19.10;94.00
13817;DHT22;6979;52.116;5.286;2024-03-02T12:55:30;19.20;93.90
13817;DHT22;6979;52.116;5.286;2024-03-02T12:57:57;19.40;93.50
13817;DHT22;6979;52.116;5.286;2024-03-02T13:00:24;19.40;93.30
13817;DHT22;6979;52.116;5.286;2024-03-02T13:02:52;19.40;93.10
13817;DHT22;6979;52.116;5.286;2024-03-02T13:05:19;19.50;94.20
13817;DHT22;6979;52.116;5.286;2024-03-02T13:07:50;19.50;94.10
13817;DHT22;6979;52.116;5.286;2024-03-02T13:10:19;19.60;95.30
13817;DHT22;6979;52.116;5.286;2024-03-02T13:12:48;19.80;95.80
13817;DHT22;6979;52.116;5.286;2024-03-02T13:15:15;19.90;94.50
13817;DHT22;6979;52.116;5.286;2024-03-02T13:17:42;20.10;93.30
13817;DHT22;6979;52.116;5.286;2024-03-02T13:20:12;20.20;93.30
13817;DHT22;6979;52.116;5.286;2024-03-02T13:22:40;20.20;93.40
13817;DHT22;6979;52.116;5.286;2024-03-02T13:25:07;20.30;93.10
13817;DHT22;6979;52.116;5.286;2024-03-02T13:27:36;20.30;92.20
13817;DHT22;6979;52.116;5.286;2024-03-02T13:30:04;20.30;93.40
13817;DHT22;6979;52.116;5.286;2024-03-02T13:32:32;20.40;95.10
13817;DHT22;6979;52.116;5.286;2024-03-02T13:35:02;20.50;93.90
13817;DHT22;6979;52.116;5.286;2024-03-02T13:37:30;20.60;94.90
13817;DHT22;6979;52.116;5.286;2024-03-02T13:39:57;20.80;95.30
13817;DHT22;6979;52.116;5.286;2024-03-02T13:42:24;20.90;95.80
13817;DHT22;6979;52.116;5.286;2024-03-02T13:44:53;21.10;95.90
13817;DHT22;6979;52.116;5.286;2024-03-02T13:47:20;21.20;93.00
13817;DHT22;6979;52.116;5.286;2024-03-02T13:49:47;21.30;93.10
13817;DHT22;6979;52.116;5.286;2024-03-02T13:52:14;21.30;92.80
13817;DHT22;6979;52.116;5.286;2024-03-02T13:54:46;21.20;93.00
13817;DHT22;6979;52.116;5.286;2024-03-02T13:57:13;21.20;93.60
13817;DHT22;6979;52.116;5.286;2024-03-02T13:59:41;21.20;94.50
13817;DHT22;6979;52.116;5.286;2024-03-02T14:02:11;21.20;94.50
13817;DHT22;6979;52.116;5.286;2024-03-02T14:04:39;21.30;94.30
13817;DHT22;6979;52.116;5.286;2024-03-02T14:07:07;21.40;93.30
13817;DHT22;6979;52.116;5.286;2024-03-02T14:09:34;21.40;93.70
13817;DHT22;6979;52.116;5.286;2024-03-02T14:12:03;21.50;93.60
13817;DHT22;6979;52.116;5.286;2024-03-02T14:14:30;21.50;92.10
13817;DHT22;6979;52.116;5.286;2024-03-02T14:16:58;21.50;93.30
13817;DHT22;6979;52.116;5.286;2024-03-02T14:19:26;21.40;93.80
13817;DHT22;6979;52.116;5.286;2024-03-02T14:21:52;21.20;93.20
13817;DHT22;6979;52.116;5.286;2024-03-02T14:24:19;21.10;93.20
13817;DHT22;6979;52.116;5.286;2024-03-02T14:26:49;21.00;93.70
13817;DHT22;6979;52.116;5.286;2024-03-02T14:29:20;20.80;93.60
13817;DHT22;6979;52.116;5.286;2024-03-02T14:31:47;20.70;93.70
13817;DHT22;6979;52.116;5.286;2024-03-02T14:34:14;20.50;93.60
13817;DHT22;6979;52.116;5.286;2024-03-02T14:36:41;20.30;93.50
13817;DHT22;6979;52.116;5.286;2024-03-02T14:39:10;20.10;93.50
13817;DHT22;6979;52.116;5.286;2024-03-02T14:41:37;19.90;93.70
13817;DHT22;6979;52.116;5.286;2024-03-02T14:44:05;19.80;94.10
13817;DHT22;6979;52.116;5.286;2024-03-02T14:46:33;19.60;93.70
13817;DHT22;6979;52.116;5.286;2024-03-02T14:49:00;19.50;94.30
13817;DHT22;6979;52.116;5.286;2024-03-02T14:51:27;19.40;95.00
13817;DHT22;6979;52.116;5.286;2024-03-02T14:53:55;19.40;94.70
13817;DHT22;6979;52.116;5.286;2024-03-02T14:56:22;19.30;95.20
13817;DHT22;6979;52.116;5.286;2024-03-02T14:58:49;19.30;94.80
13817;DHT22;6979;52.116;5.286;2024-03-02T15:01:16;19.30;95.40
13817;DHT22;6979;52.116;5.286;2024-03-02T15:03:45;19.30;95.60
13817;DHT22;6979;52.116;5.286;2024-03-02T15:06:12;19.40;95.50
13817;DHT22;6979;52.116;5.286;2024-03-02T15:08:39;19.40;95.40
13817;DHT22;6979;52.116;5.286;2024-03-02T15:11:07;19.40;95.20
13817;DHT22;6979;52.116;5.286;2024-03-02T15:13:34;19.40;95.00
13817;DHT22;6979;52.116;5.286;2024-03-02T15:16:00;19.40;95.00
13817;DHT22;6979;52.116;5.286;2024-03-02T15:18:30;19.40;95.20
13817;DHT22;6979;52.116;5.286;2024-03-02T15:21:00;19.40;95.70
13817;DHT22;6979;52.116;5.286;2024-03-02T15:23:28;19.50;95.20
13817;DHT22;6979;52.116;5.286;2024-03-02T15:25:56;19.60;95.30
13817;DHT22;6979;52.116;5.286;2024-03-02T15:28:22;19.70;95.40
13817;DHT22;6979;52.116;5.286;2024-03-02T15:30:49;19.70;94.60
13817;DHT22;6979;52.116;5.286;2024-03-02T15:33:19;19.70;94.50
13817;DHT22;6979;52.116;5.286;2024-03-02T15:35:46;19.70;94.60
13817;DHT22;6979;52.116;5.286;2024-03-02T15:38:16;19.60;94.70
13817;DHT22;6979;52.116;5.286;2024-03-02T15:40:43;19.60;94.50
13817;DHT22;6979;52.116;5.286;2024-03-02T15:43:11;19.50;94.70
13817;DHT22;6979;52.116;5.286;2024-03-02T15:45:37;19.40;95.10
13817;DHT22;6979;52.116;5.286;2024-03-02T15:48:07;19.30;95.10
13817;DHT22;6979;52.116;5.286;2024-03-02T15:50:34;19.30;95.10
13817;DHT22;6979;52.116;5.286;2024-03-02T15:53:03;19.20;95.00
13817;DHT22;6979;52.116;5.286;2024-03-02T15:55:33;19.10;95.10